createdAt,value
2017-01-10T00:00:28.300Z,92.8
2017-01-10T00:01:28.288Z,93.09
2017-01-10T00:02:28.271Z,92.71
2017-01-10T00:03:28.260Z,92.99
2017-01-10T00:04:28.241Z,92.99
2017-01-10T00:05:28.229Z,93.18
2017-01-10T00:06:28.212Z,92.99
2017-01-10T00:07:28.197Z,93.09
2017-01-10T00:08:28.182Z,93.09
2017-01-10T00:09:28.166Z,93.18
2017-01-10T00:10:28.153Z,93.37
2017-01-10T00:11:28.137Z,94.04
2017-01-10T00:12:28.509Z,93.94
2017-01-10T00:13:28.107Z,93.66
2017-01-10T00:14:28.099Z,93.75
2017-01-10T00:15:28.075Z,93.13
2017-01-10T00:16:28.061Z,93.13
2017-01-10T00:17:28.070Z,93.51
2017-01-10T00:18:28.032Z,93.32
2017-01-10T00:19:28.015Z,93.51
2017-01-10T00:20:28.002Z,93.13
2017-01-10T00:21:27.986Z,93.13
2017-01-10T00:22:27.969Z,93.32
2017-01-10T00:23:27.955Z,93.13
2017-01-10T00:24:27.939Z,93.32
2017-01-10T00:25:27.922Z,92.85
2017-01-10T00:26:27.909Z,93.51
2017-01-10T00:27:27.894Z,93.7
2017-01-10T00:28:27.878Z,93.23
2017-01-10T00:29:27.863Z,93.7
2017-01-10T00:30:27.846Z,93.8
2017-01-10T00:31:27.834Z,93.51
2017-01-10T00:32:27.817Z,94.37
2017-01-10T00:33:27.823Z,93.32
2017-01-10T00:34:27.785Z,93.99
2017-01-10T00:35:27.771Z,94.08
2017-01-10T00:36:27.755Z,94.18
2017-01-10T00:37:27.741Z,94.08
2017-01-10T00:38:27.724Z,94.84
2017-01-10T00:39:27.709Z,94.27
2017-01-10T00:40:27.692Z,94.27
2017-01-10T00:41:27.677Z,94.65
2017-01-10T00:42:27.661Z,94.37
2017-01-10T00:43:27.646Z,94.27
2017-01-10T00:44:27.631Z,94.65
2017-01-10T00:45:27.617Z,94.27
2017-01-10T00:46:27.599Z,94.93
2017-01-10T00:47:27.583Z,94.08
2017-01-10T00:48:27.568Z,95.31
2017-01-10T00:49:27.554Z,94.93
2017-01-10T00:50:27.536Z,94.74
2017-01-10T00:51:27.521Z,94.56
2017-01-10T00:52:27.507Z,95.03
2017-01-10T00:53:27.491Z,94.46
2017-01-10T00:54:27.495Z,94.27
2017-01-10T00:55:27.461Z,94.74
2017-01-10T00:56:27.444Z,94.74
2017-01-10T00:57:27.430Z,94.27
2017-01-10T00:58:27.416Z,94.74
2017-01-10T00:59:27.397Z,94.65
2017-01-10T01:00:27.387Z,94.56
2017-01-10T01:01:27.367Z,94.65
2017-01-10T01:02:27.350Z,94.74
2017-01-10T01:03:27.335Z,94.74
2017-01-10T01:04:27.321Z,94.56
2017-01-10T01:05:27.304Z,94.74
2017-01-10T01:06:27.289Z,94.65
2017-01-10T01:07:27.274Z,94.56
2017-01-10T01:08:27.258Z,94.37
2017-01-10T01:09:27.245Z,95.03
2017-01-10T01:10:27.229Z,93.8
2017-01-10T01:11:27.213Z,93.99
2017-01-10T01:12:27.198Z,94.13
2017-01-10T01:13:27.183Z,94.37
2017-01-10T01:14:27.166Z,93.7
2017-01-10T01:15:27.151Z,93.85
2017-01-10T01:16:27.136Z,93.37
2017-01-10T01:17:27.124Z,93.66
2017-01-10T01:18:27.105Z,93.28
2017-01-10T01:19:27.091Z,93.66
2017-01-10T01:20:27.074Z,93.37
2017-01-10T01:21:27.063Z,92.99
2017-01-10T01:22:27.045Z,92.99
2017-01-10T01:23:27.031Z,92.99
2017-01-10T01:24:27.015Z,93.56
2017-01-10T01:25:26.999Z,93.47
2017-01-10T01:26:26.986Z,93.56
2017-01-10T01:27:26.968Z,92.61
2017-01-10T01:28:26.954Z,92.14
2017-01-10T01:29:26.941Z,92.05
2017-01-10T01:30:26.923Z,92.43
2017-01-10T01:31:26.908Z,91.86
2017-01-10T01:32:26.893Z,91.96
2017-01-10T01:33:27.266Z,91.86
2017-01-10T01:34:26.864Z,92.33
2017-01-10T01:35:26.848Z,93.09
2017-01-10T01:36:26.835Z,92.52
2017-01-10T01:37:26.820Z,92.61
2017-01-10T01:38:26.804Z,93.09
2017-01-10T01:39:26.787Z,93.28
2017-01-10T01:40:26.774Z,93.51
2017-01-10T01:41:26.760Z,93.47
2017-01-10T01:42:26.741Z,92.33
2017-01-10T01:43:26.728Z,91.86
2017-01-10T01:44:26.713Z,91.96
2017-01-10T01:45:26.699Z,92.14
2017-01-10T01:46:26.681Z,92.57
2017-01-10T01:47:26.667Z,92.24
2017-01-10T01:48:26.652Z,92.52
2017-01-10T01:49:26.637Z,91.77
2017-01-10T01:50:26.621Z,91.86
2017-01-10T01:51:26.606Z,91.77
2017-01-10T01:52:26.591Z,92.24
2017-01-10T01:53:26.578Z,92.71
2017-01-10T01:54:26.561Z,92.52
2017-01-10T01:55:26.546Z,91.58
2017-01-10T01:56:26.531Z,92.14
2017-01-10T01:57:26.517Z,91.77
2017-01-10T01:58:26.500Z,91.48
2017-01-10T01:59:26.487Z,91.48
2017-01-10T02:00:26.469Z,91.29
2017-01-10T02:01:26.455Z,91.48
2017-01-10T02:02:26.441Z,91.53
2017-01-10T02:03:26.424Z,90.91
2017-01-10T02:04:26.410Z,91.43
2017-01-10T02:05:26.397Z,91.53
2017-01-10T02:06:26.380Z,91.77
2017-01-10T02:07:26.364Z,91.58
2017-01-10T02:08:26.348Z,91.48
2017-01-10T02:09:26.335Z,91.1
2017-01-10T02:10:26.320Z,90.58
2017-01-10T02:11:26.303Z,90.39
2017-01-10T02:12:26.288Z,90.63
2017-01-10T02:13:26.273Z,90.77
2017-01-10T02:14:26.260Z,90.82
2017-01-10T02:15:26.242Z,90.2
2017-01-10T02:16:26.228Z,89.69
2017-01-10T02:17:26.215Z,90.06
2017-01-10T02:18:26.201Z,90.63
2017-01-10T02:19:26.186Z,90.68
2017-01-10T02:20:26.170Z,91.1
2017-01-10T02:21:26.154Z,90.82
2017-01-10T02:22:26.143Z,91.2
2017-01-10T02:23:26.123Z,91.48
2017-01-10T02:24:26.108Z,91.58
2017-01-10T02:25:26.095Z,91.01
2017-01-10T02:26:26.079Z,90.72
2017-01-10T02:27:26.065Z,90.06
2017-01-10T02:28:26.048Z,90.63
2017-01-10T02:29:26.033Z,90.44
2017-01-10T02:30:26.018Z,90.72
2017-01-10T02:31:26.007Z,91.1
2017-01-10T02:32:25.990Z,90.44
2017-01-10T02:33:25.973Z,90.44
2017-01-10T02:34:25.959Z,90.34
2017-01-10T02:35:25.943Z,90.53
2017-01-10T02:36:25.929Z,91.01
2017-01-10T02:37:25.914Z,91.1
2017-01-10T02:38:25.900Z,91.58
2017-01-10T02:39:25.883Z,90.53
2017-01-10T02:40:25.867Z,90.53
2017-01-10T02:41:25.859Z,90.44
2017-01-10T02:42:25.838Z,90.63
2017-01-10T02:43:25.823Z,91.48
2017-01-10T02:44:25.808Z,92.05
2017-01-10T02:45:25.795Z,91.86
2017-01-10T02:46:25.778Z,92.05
2017-01-10T02:47:25.766Z,91.48
2017-01-10T02:48:25.748Z,90.72
2017-01-10T02:49:25.736Z,90.91
2017-01-10T02:50:25.719Z,91.01
2017-01-10T02:51:25.704Z,91.1
2017-01-10T02:52:25.692Z,91.01
2017-01-10T02:53:25.674Z,91.1
2017-01-10T02:54:25.661Z,89.87
2017-01-10T02:55:25.643Z,90.63
2017-01-10T02:56:25.628Z,90.91
2017-01-10T02:57:25.614Z,90.25
2017-01-10T02:58:25.600Z,90.16
2017-01-10T02:59:25.584Z,89.59
2017-01-10T03:00:25.570Z,90.34
2017-01-10T03:01:25.555Z,89.87
2017-01-10T03:02:25.540Z,90.16
2017-01-10T03:03:25.524Z,89.69
2017-01-10T03:04:25.510Z,89.59
2017-01-10T03:05:25.495Z,89.4
2017-01-10T03:06:25.482Z,89.59
2017-01-10T03:07:25.466Z,89.31
2017-01-10T03:08:25.450Z,89.12
2017-01-10T03:09:25.435Z,89.59
2017-01-10T03:10:25.419Z,89.97
2017-01-10T03:11:25.405Z,90.44
2017-01-10T03:12:25.391Z,89.87
2017-01-10T03:13:25.376Z,90.16
2017-01-10T03:14:25.362Z,89.97
2017-01-10T03:15:25.346Z,90.16
2017-01-10T03:16:25.332Z,89.78
2017-01-10T03:17:25.319Z,90.06
2017-01-10T03:18:25.302Z,89.87
2017-01-10T03:19:25.286Z,89.69
2017-01-10T03:20:25.273Z,89.59
2017-01-10T03:21:25.256Z,89.59
2017-01-10T03:22:25.242Z,89.5
2017-01-10T03:23:25.226Z,89.78
2017-01-10T03:24:25.214Z,89.69
2017-01-10T03:25:25.198Z,89.69
2017-01-10T03:26:25.182Z,90.06
2017-01-10T03:27:25.168Z,89.69
2017-01-10T03:28:25.152Z,89.59
2017-01-10T03:29:25.137Z,89.4
2017-01-10T03:30:25.121Z,89.87
2017-01-10T03:31:25.109Z,89.87
2017-01-10T03:32:25.092Z,89.4
2017-01-10T03:33:25.079Z,89.59
2017-01-10T03:34:25.063Z,89.78
2017-01-10T03:35:25.046Z,89.69
2017-01-10T03:36:25.032Z,90.16
2017-01-10T03:37:25.017Z,90.16
2017-01-10T03:38:25.005Z,89.69
2017-01-10T03:39:24.987Z,89.97
2017-01-10T03:40:24.975Z,89.78
2017-01-10T03:41:24.959Z,89.59
2017-01-10T03:42:24.941Z,89.59
2017-01-10T03:43:24.928Z,90.06
2017-01-10T03:44:24.912Z,89.59
2017-01-10T03:45:24.896Z,90.16
2017-01-10T03:46:24.880Z,89.54
2017-01-10T03:47:24.867Z,89.87
2017-01-10T03:48:24.853Z,89.26
2017-01-10T03:49:24.838Z,88.98
2017-01-10T03:50:24.824Z,89.45
2017-01-10T03:51:24.805Z,89.92
2017-01-10T03:52:24.790Z,89.64
2017-01-10T03:53:24.777Z,90.01
2017-01-10T03:54:24.761Z,89.83
2017-01-10T03:55:24.746Z,90.2
2017-01-10T03:56:24.733Z,90.2
2017-01-10T03:57:24.716Z,89.83
2017-01-10T03:58:24.701Z,90.3
2017-01-10T03:59:24.686Z,90.39
2017-01-10T04:00:24.671Z,90.86
2017-01-10T04:01:24.654Z,90.96
2017-01-10T04:02:24.639Z,91.05
2017-01-10T04:03:24.625Z,90.58
2017-01-10T04:04:24.611Z,90.86
2017-01-10T04:05:24.594Z,90.39
2017-01-10T04:06:24.577Z,90.68
2017-01-10T04:07:24.563Z,90.96
2017-01-10T04:08:24.547Z,90.01
2017-01-10T04:09:24.534Z,90.2
2017-01-10T04:10:24.516Z,90.58
2017-01-10T04:11:24.500Z,90.91
2017-01-10T04:12:24.487Z,90.86
2017-01-10T04:13:24.469Z,91.24
2017-01-10T04:14:24.453Z,91.58
2017-01-10T04:15:24.438Z,91.77
2017-01-10T04:16:24.422Z,91.29
2017-01-10T04:17:24.404Z,91.67
2017-01-10T04:18:24.390Z,91.77
2017-01-10T04:19:24.377Z,92.05
2017-01-10T04:20:24.358Z,91.77
2017-01-10T04:21:24.343Z,91.58
2017-01-10T04:22:24.329Z,91.67
2017-01-10T04:23:24.312Z,91.67
2017-01-10T04:24:24.297Z,92.24
2017-01-10T04:25:24.279Z,92.61
2017-01-10T04:26:24.264Z,92.33
2017-01-10T04:27:24.247Z,92.9
2017-01-10T04:28:24.231Z,92.43
2017-01-10T04:29:24.214Z,92.52
2017-01-10T04:30:24.198Z,92.52
2017-01-10T04:31:24.182Z,92.9
2017-01-10T04:32:24.165Z,92.8
2017-01-10T04:33:24.150Z,93.09
2017-01-10T04:34:24.134Z,92.99
2017-01-10T04:35:24.120Z,92.9
2017-01-10T04:36:24.103Z,93.09
2017-01-10T04:37:24.086Z,93.66
2017-01-10T04:38:24.070Z,93.42
2017-01-10T04:39:24.053Z,93.84
2017-01-10T04:40:24.041Z,93.42
2017-01-10T04:41:24.021Z,93.23
2017-01-10T04:42:24.004Z,93.42
2017-01-10T04:43:23.991Z,93.23
2017-01-10T04:44:23.972Z,93.61
2017-01-10T04:45:23.956Z,94.18
2017-01-10T04:46:23.941Z,93.61
2017-01-10T04:47:23.923Z,93.99
2017-01-10T04:48:23.918Z,94.08
2017-01-10T04:49:23.894Z,94.18
2017-01-10T04:50:23.875Z,94.56
2017-01-10T04:51:23.859Z,93.99
2017-01-10T04:52:23.840Z,93.8
2017-01-10T04:53:23.824Z,93.99
2017-01-10T04:54:23.809Z,94.08
2017-01-10T04:55:23.795Z,94.18
2017-01-10T04:56:23.775Z,93.8
2017-01-10T04:57:23.760Z,94.84
2017-01-10T04:58:23.743Z,94.56
2017-01-10T04:59:23.727Z,94.46
2017-01-10T05:00:23.707Z,94.27
2017-01-10T05:01:23.694Z,94.56
2017-01-10T05:02:23.677Z,94.27
2017-01-10T05:03:23.674Z,94.84
2017-01-10T05:04:23.643Z,95.12
2017-01-10T05:05:23.626Z,94.56
2017-01-10T05:06:23.610Z,94.65
2017-01-10T05:07:23.595Z,94.84
2017-01-10T05:08:23.578Z,95.4
2017-01-10T05:09:23.567Z,95.21
2017-01-10T05:10:23.543Z,95.4
2017-01-10T05:11:23.525Z,95.5
2017-01-10T05:12:23.527Z,95.31
2017-01-10T05:13:23.492Z,95.97
2017-01-10T05:14:23.474Z,96.06
2017-01-10T05:15:23.459Z,95.87
2017-01-10T05:16:23.442Z,95.68
2017-01-10T05:17:23.433Z,95.97
2017-01-10T05:18:23.412Z,95.5
2017-01-10T05:19:23.392Z,95.59
2017-01-10T05:20:23.376Z,95.21
2017-01-10T05:21:23.360Z,95.78
2017-01-10T05:22:23.343Z,95.31
2017-01-10T05:23:23.325Z,95.78
2017-01-10T05:24:23.309Z,95.87
2017-01-10T05:25:23.291Z,95.59
2017-01-10T05:26:23.274Z,95.5
2017-01-10T05:27:23.258Z,95.78
2017-01-10T05:28:23.241Z,95.97
2017-01-10T05:29:23.229Z,95.4
2017-01-10T05:30:23.208Z,95.78
2017-01-10T05:31:23.192Z,95.87
2017-01-10T05:32:23.174Z,96.44
2017-01-10T05:33:23.157Z,96.06
2017-01-10T05:34:23.144Z,95.59
2017-01-10T05:35:23.125Z,95.87
2017-01-10T05:36:23.108Z,95.97
2017-01-10T05:37:23.093Z,96.16
2017-01-10T05:38:23.078Z,96.25
2017-01-10T05:39:23.069Z,97.1
2017-01-10T05:40:23.040Z,96.82
2017-01-10T05:41:23.024Z,96.73
2017-01-10T05:42:23.008Z,96.91
2017-01-10T05:43:22.987Z,96.54
2017-01-10T05:44:22.971Z,96.73
2017-01-10T05:45:22.954Z,96.54
2017-01-10T05:46:22.939Z,96.16
2017-01-10T05:47:22.919Z,96.06
2017-01-10T05:48:22.904Z,96.54
2017-01-10T05:49:22.887Z,95.97
2017-01-10T05:50:22.870Z,95.68
2017-01-10T05:51:22.854Z,96.25
2017-01-10T05:52:22.834Z,96.25
2017-01-10T05:53:22.819Z,95.68
2017-01-10T05:54:22.800Z,96.63
2017-01-10T05:55:22.784Z,96.54
2017-01-10T05:56:22.769Z,96.06
2017-01-10T05:57:22.751Z,96.06
2017-01-10T05:58:22.734Z,96.16
2017-01-10T05:59:22.716Z,96.35
2017-01-10T06:00:22.699Z,96.06
2017-01-10T06:01:22.682Z,96.16
2017-01-10T06:02:22.666Z,95.97
2017-01-10T06:03:22.649Z,96.54
2017-01-10T06:04:22.633Z,96.73
2017-01-10T06:05:22.614Z,96.25
2017-01-10T06:06:22.597Z,96.44
2017-01-10T06:07:22.580Z,96.49
2017-01-10T06:08:22.562Z,96.54
2017-01-10T06:09:22.544Z,96.54
2017-01-10T06:10:22.527Z,96.82
2017-01-10T06:11:22.511Z,96.39
2017-01-10T06:12:22.494Z,96.49
2017-01-10T06:13:22.476Z,96.68
2017-01-10T06:14:22.460Z,96.68
2017-01-10T06:15:22.442Z,96.39
2017-01-10T06:16:22.426Z,97.05
2017-01-10T06:17:22.407Z,96.11
2017-01-10T06:18:22.777Z,96.49
2017-01-10T06:19:22.373Z,96.77
2017-01-10T06:20:22.355Z,96.49
2017-01-10T06:21:22.340Z,96.49
2017-01-10T06:22:22.710Z,96.86
2017-01-10T06:23:22.304Z,96.11
2017-01-10T06:24:22.287Z,96.3
2017-01-10T06:25:22.270Z,96.49
2017-01-10T06:26:22.255Z,96.39
2017-01-10T06:27:22.233Z,96.11
2017-01-10T06:28:22.218Z,96.77
2017-01-10T06:29:22.210Z,96.77
2017-01-10T06:30:22.188Z,96.86
2017-01-10T06:31:22.167Z,96.77
2017-01-10T06:32:22.148Z,96.86
2017-01-10T06:33:22.131Z,96.58
2017-01-10T06:34:22.114Z,97.24
2017-01-10T06:35:22.096Z,97.05
2017-01-10T06:36:22.079Z,97.15
2017-01-10T06:37:22.064Z,96.86
2017-01-10T06:38:22.048Z,96.49
2017-01-10T06:39:22.027Z,96.49
2017-01-10T06:40:22.011Z,96.86
2017-01-10T06:41:21.994Z,96.96
2017-01-10T06:42:21.976Z,96.86
2017-01-10T06:43:21.960Z,96.77
2017-01-10T06:44:21.942Z,97.15
2017-01-10T06:45:21.924Z,97.34
2017-01-10T06:46:21.912Z,97.34
2017-01-10T06:47:21.890Z,97.05
2017-01-10T06:48:21.874Z,97.53
2017-01-10T06:49:21.856Z,97.15
2017-01-10T06:50:21.842Z,97.43
2017-01-10T06:51:21.822Z,97.15
2017-01-10T06:52:21.804Z,97.15
2017-01-10T06:53:21.785Z,97.24
2017-01-10T06:54:21.767Z,97.91
2017-01-10T06:55:21.754Z,98.47
2017-01-10T06:56:21.734Z,98.38
2017-01-10T06:57:21.716Z,97.62
2017-01-10T06:58:21.699Z,97.24
2017-01-10T06:59:21.682Z,97.43
2017-01-10T07:00:21.664Z,97.81
2017-01-10T07:01:21.647Z,96.96
2017-01-10T07:02:21.631Z,97.62
2017-01-10T07:03:21.617Z,97.62
2017-01-10T07:04:21.597Z,97.24
2017-01-10T07:05:21.580Z,96.68
2017-01-10T07:06:21.562Z,96.68
2017-01-10T07:07:21.544Z,97.43
2017-01-10T07:08:21.527Z,97.24
2017-01-10T07:09:21.511Z,96.68
2017-01-10T07:10:21.495Z,96.58
2017-01-10T07:11:21.475Z,96.86
2017-01-10T07:12:21.459Z,96.86
2017-01-10T07:13:21.442Z,97.34
2017-01-10T07:14:21.423Z,96.58
2017-01-10T07:15:21.406Z,96.68
2017-01-10T07:16:21.390Z,96.86
2017-01-10T07:17:21.373Z,96.86
2017-01-10T07:18:21.353Z,97.05
2017-01-10T07:19:21.338Z,96.96
2017-01-10T07:20:21.320Z,96.58
2017-01-10T07:21:21.304Z,96.77
2017-01-10T07:22:21.286Z,96.86
2017-01-10T07:23:21.271Z,97.24
2017-01-10T07:24:21.252Z,97.05
2017-01-10T07:25:21.234Z,97.24
2017-01-10T07:26:21.217Z,97.53
2017-01-10T07:27:21.200Z,96.77
2017-01-10T07:28:21.184Z,97.24
2017-01-10T07:29:21.165Z,97.62
2017-01-10T07:30:21.149Z,97.34
2017-01-10T07:31:21.131Z,96.96
2017-01-10T07:32:21.115Z,96.96
2017-01-10T07:33:21.123Z,97.24
2017-01-10T07:34:21.080Z,96.58
2017-01-10T07:35:21.063Z,97.24
2017-01-10T07:36:21.044Z,96.77
2017-01-10T07:37:21.029Z,96.68
2017-01-10T07:38:21.014Z,96.86
2017-01-10T07:39:20.993Z,97.24
2017-01-10T07:40:20.979Z,96.86
2017-01-10T07:41:20.962Z,96.86
2017-01-10T07:42:20.942Z,96.68
2017-01-10T07:43:20.928Z,96.77
2017-01-10T07:44:20.910Z,96.58
2017-01-10T07:45:20.890Z,96.96
2017-01-10T07:46:20.876Z,96.91
2017-01-10T07:47:20.857Z,96.96
2017-01-10T07:48:20.838Z,96.49
2017-01-10T07:49:20.822Z,96.58
2017-01-10T07:50:20.806Z,96.35
2017-01-10T07:51:20.809Z,96.44
2017-01-10T07:52:20.772Z,96.44
2017-01-10T07:53:20.754Z,96.25
2017-01-10T07:54:20.738Z,96.68
2017-01-10T07:55:20.722Z,96.91
2017-01-10T07:56:20.701Z,96.91
2017-01-10T07:57:20.688Z,96.54
2017-01-10T07:58:20.668Z,96.73
2017-01-10T07:59:20.654Z,96.25
2017-01-10T08:00:20.639Z,96.16
2017-01-10T08:01:20.620Z,96.16
2017-01-10T08:02:20.600Z,96.16
2017-01-10T08:03:20.583Z,96.16
2017-01-10T08:04:20.566Z,96.35
2017-01-10T08:05:20.552Z,96.44
2017-01-10T08:06:20.533Z,96.63
2017-01-10T08:07:20.521Z,95.5
2017-01-10T08:08:20.500Z,96.16
2017-01-10T08:09:20.481Z,95.87
2017-01-10T08:10:20.464Z,95.97
2017-01-10T08:11:20.452Z,95.59
2017-01-10T08:12:20.432Z,95.78
2017-01-10T08:13:20.413Z,95.78
2017-01-10T08:14:20.398Z,95.87
2017-01-10T08:15:20.384Z,95.59
2017-01-10T08:16:20.363Z,95.12
2017-01-10T08:17:20.347Z,95.21
2017-01-10T08:18:20.328Z,95.59
2017-01-10T08:19:20.313Z,95.31
2017-01-10T08:20:20.296Z,95.12
2017-01-10T08:21:20.279Z,95.12
2017-01-10T08:22:20.264Z,95.21
2017-01-10T08:23:20.248Z,95.21
2017-01-10T08:24:20.227Z,95.97
2017-01-10T08:25:20.211Z,95.12
2017-01-10T08:26:20.194Z,95.03
2017-01-10T08:27:20.179Z,94.93
2017-01-10T08:28:20.160Z,95.12
2017-01-10T08:29:20.144Z,95.03
2017-01-10T08:30:20.130Z,95.87
2017-01-10T08:31:20.109Z,95.21
2017-01-10T08:32:20.093Z,94.65
2017-01-10T08:33:20.077Z,94.84
2017-01-10T08:34:20.064Z,95.12
2017-01-10T08:35:20.043Z,94.37
2017-01-10T08:36:20.028Z,94.37
2017-01-10T08:37:20.009Z,94.56
2017-01-10T08:38:19.995Z,94.74
2017-01-10T08:39:19.978Z,94.18
2017-01-10T08:40:19.961Z,93.99
2017-01-10T08:41:19.944Z,94.37
2017-01-10T08:42:19.935Z,94.37
2017-01-10T08:43:20.302Z,93.94
2017-01-10T08:44:19.897Z,94.89
2017-01-10T08:45:19.880Z,94.41
2017-01-10T08:46:19.863Z,93.75
2017-01-10T08:47:19.852Z,93.66
2017-01-10T08:48:19.834Z,93.47
2017-01-10T08:49:19.820Z,93.18
2017-01-10T08:50:19.797Z,93.56
2017-01-10T08:51:19.785Z,92.99
2017-01-10T08:52:20.152Z,93.18
2017-01-10T08:53:19.750Z,92.05
2017-01-10T08:54:19.733Z,91.58
2017-01-10T08:55:19.720Z,91.39
2017-01-10T08:56:19.705Z,91.77
2017-01-10T08:57:19.689Z,91.29
2017-01-10T08:58:19.676Z,91.53
2017-01-10T08:59:19.660Z,91.43
2017-01-10T09:00:19.639Z,91.62
2017-01-10T09:01:19.622Z,91.91
2017-01-10T09:02:19.993Z,91.53
2017-01-10T09:03:19.591Z,90.77
2017-01-10T09:04:19.577Z,90.58
2017-01-10T09:05:19.564Z,89.64
2017-01-10T09:06:19.550Z,88.79
2017-01-10T09:07:19.532Z,88.98
2017-01-10T09:08:19.516Z,89.64
2017-01-10T09:09:19.503Z,89.64
2017-01-10T09:10:19.488Z,89.69
2017-01-10T09:11:19.470Z,89.12
2017-01-10T09:12:19.455Z,87.7
2017-01-10T09:13:19.443Z,87.32
2017-01-10T09:14:19.427Z,87.23
2017-01-10T09:15:19.410Z,87.41
2017-01-10T09:16:19.396Z,86.75
2017-01-10T09:17:19.381Z,87.41
2017-01-10T09:18:19.368Z,87.98
2017-01-10T09:19:19.353Z,87.32
2017-01-10T09:20:19.339Z,87.41
2017-01-10T09:21:19.324Z,86.09
2017-01-10T09:22:19.311Z,85.52
2017-01-10T09:23:19.294Z,86.09
2017-01-10T09:24:19.280Z,86.09
2017-01-10T09:25:19.266Z,86.37
2017-01-10T09:26:19.252Z,86.85
2017-01-10T09:27:19.238Z,85.71
2017-01-10T09:28:19.222Z,85.8
2017-01-10T09:29:19.209Z,86.09
2017-01-10T09:30:19.195Z,85.99
2017-01-10T09:31:19.179Z,85.85
2017-01-10T09:32:19.167Z,85.09
2017-01-10T09:33:19.151Z,85.47
2017-01-10T09:34:19.137Z,85.66
2017-01-10T09:35:19.124Z,85.09
2017-01-10T09:36:19.112Z,84.23
2017-01-10T09:37:19.098Z,84.42
2017-01-10T09:38:19.082Z,84.52
2017-01-10T09:39:19.070Z,84.42
2017-01-10T09:40:19.055Z,84.81
2017-01-10T09:41:19.042Z,84.61
2017-01-10T09:42:19.029Z,84.71
2017-01-10T09:43:19.014Z,83.76
2017-01-10T09:44:19.000Z,84.52
2017-01-10T09:45:18.990Z,84.33
2017-01-10T09:46:18.972Z,82.72
2017-01-10T09:47:18.961Z,81.96
2017-01-10T09:48:18.945Z,81.87
2017-01-10T09:49:18.933Z,81.68
2017-01-10T09:50:18.921Z,81.68
2017-01-10T09:51:18.913Z,81.68
2017-01-10T09:52:18.892Z,82.63
2017-01-10T09:53:18.878Z,82.53
2017-01-10T09:54:18.865Z,82.72
2017-01-10T09:55:18.857Z,82.53
2017-01-10T09:56:18.837Z,82.06
2017-01-10T09:57:18.826Z,82.72
2017-01-10T09:58:18.811Z,81.77
2017-01-10T09:59:18.796Z,81.59
2017-01-10T10:00:18.786Z,80.74
2017-01-10T10:01:18.776Z,80.93
2017-01-10T10:02:18.755Z,80.64
2017-01-10T10:03:18.741Z,81.49
2017-01-10T10:04:18.729Z,82.34
2017-01-10T10:05:18.718Z,82.72
2017-01-10T10:06:18.700Z,82.63
2017-01-10T10:07:18.689Z,80.83
2017-01-10T10:08:18.674Z,81.68
2017-01-10T10:09:18.662Z,81.87
2017-01-10T10:10:18.646Z,81.87
2017-01-10T10:11:18.633Z,81.3
2017-01-10T10:12:18.620Z,79.6
2017-01-10T10:13:18.606Z,79.69
2017-01-10T10:14:18.597Z,78.56
2017-01-10T10:15:18.583Z,78.69
2017-01-10T10:16:18.568Z,79.22
2017-01-10T10:17:18.556Z,78.98
2017-01-10T10:18:18.542Z,78.79
2017-01-10T10:19:18.530Z,78.79
2017-01-10T10:20:18.516Z,78.79
2017-01-10T10:21:18.502Z,77.75
2017-01-10T10:22:18.487Z,77.27
2017-01-10T10:23:18.478Z,77.08
2017-01-10T10:24:18.460Z,76.61
2017-01-10T10:25:18.449Z,77.56
2017-01-10T10:26:18.436Z,78.41
2017-01-10T10:27:18.821Z,78.03
2017-01-10T10:28:18.412Z,78.41
2017-01-10T10:29:18.399Z,76.95
2017-01-10T10:30:18.383Z,77.08
2017-01-10T10:31:18.370Z,77.75
2017-01-10T10:32:18.354Z,78.69
2017-01-10T10:33:18.344Z,78.5
2017-01-10T10:34:18.328Z,78.03
2017-01-10T10:35:18.317Z,76.14
2017-01-10T10:36:18.301Z,76.8
2017-01-10T10:37:18.289Z,76.23
2017-01-10T10:38:18.276Z,75.57
2017-01-10T10:39:18.262Z,76.23
2017-01-10T10:40:18.250Z,76.32
2017-01-10T10:41:18.236Z,75.47
2017-01-10T10:42:18.223Z,75.57
2017-01-10T10:43:18.210Z,74.43
2017-01-10T10:44:18.196Z,75.47
2017-01-10T10:45:18.184Z,75.28
2017-01-10T10:46:18.171Z,76.14
2017-01-10T10:47:18.159Z,76.89
2017-01-10T10:48:18.144Z,76.99
2017-01-10T10:49:18.133Z,76.7
2017-01-10T10:50:18.120Z,74.33
2017-01-10T10:51:18.107Z,74.62
2017-01-10T10:52:18.095Z,74.62
2017-01-10T10:53:18.080Z,76.32
2017-01-10T10:54:18.067Z,76.74
2017-01-10T10:55:18.056Z,74.37
2017-01-10T10:56:18.043Z,73.24
2017-01-10T10:57:18.028Z,73.61
2017-01-10T10:58:18.016Z,73.8
2017-01-10T10:59:18.005Z,73.52
2017-01-10T11:00:17.992Z,73.05
2017-01-10T11:01:17.979Z,73.8
2017-01-10T11:02:17.964Z,74.56
2017-01-10T11:03:17.954Z,75.51
2017-01-10T11:04:17.942Z,73.8
2017-01-10T11:05:17.931Z,73.14
2017-01-10T11:06:18.304Z,72.67
2017-01-10T11:07:18.295Z,73.14
2017-01-10T11:08:17.890Z,72.19
2017-01-10T11:09:17.881Z,72.48
2017-01-10T11:10:17.869Z,71.34
2017-01-10T11:11:17.855Z,72.57
2017-01-10T11:12:17.843Z,73.71
2017-01-10T11:13:17.828Z,73.43
2017-01-10T11:14:17.817Z,73.39
2017-01-10T11:15:17.804Z,73.61
2017-01-10T11:16:17.810Z,74.24
2017-01-10T11:17:17.778Z,73.58
2017-01-10T11:18:17.767Z,73.39
2017-01-10T11:19:17.755Z,73.39
2017-01-10T11:20:17.742Z,73.3
2017-01-10T11:21:17.730Z,75.19
2017-01-10T11:22:17.716Z,75.28
2017-01-10T11:23:17.703Z,74.05
2017-01-10T11:24:17.704Z,73.86
2017-01-10T11:25:17.681Z,73.49
2017-01-10T11:26:17.671Z,73.49
2017-01-10T11:27:17.654Z,75
2017-01-10T11:28:17.641Z,75.28
2017-01-10T11:29:17.630Z,75.66
2017-01-10T11:30:17.621Z,75.85
2017-01-10T11:31:17.602Z,75.47
2017-01-10T11:32:17.982Z,75.09
2017-01-10T11:33:17.579Z,74.71
2017-01-10T11:34:17.951Z,75.95
2017-01-10T11:35:17.551Z,74.9
2017-01-10T11:36:17.547Z,74.62
2017-01-10T11:37:17.526Z,75.57
2017-01-10T11:38:17.512Z,74.71
2017-01-10T11:39:17.501Z,74.62
2017-01-10T11:40:17.488Z,74.52
2017-01-10T11:41:17.475Z,74.71
2017-01-10T11:42:17.463Z,75.57
2017-01-10T11:43:17.450Z,74.71
2017-01-10T11:44:17.437Z,75.72
2017-01-10T11:45:17.422Z,74.81
2017-01-10T11:46:17.409Z,74.52
2017-01-10T11:47:17.398Z,75.57
2017-01-10T11:48:17.382Z,76.51
2017-01-10T11:49:17.371Z,75.66
2017-01-10T11:50:17.357Z,75.85
2017-01-10T11:51:17.735Z,74.9
2017-01-10T11:52:17.339Z,76.19
2017-01-10T11:53:17.318Z,75.57
2017-01-10T11:54:17.307Z,75.28
2017-01-10T11:55:17.292Z,75.38
2017-01-10T11:56:17.277Z,73.68
2017-01-10T11:57:17.269Z,73.2
2017-01-10T11:58:17.252Z,73.11
2017-01-10T11:59:17.236Z,72.25
2017-01-10T12:00:17.225Z,72.25
2017-01-10T12:01:17.213Z,72.19
2017-01-10T12:02:17.198Z,72
2017-01-10T12:03:17.189Z,72
2017-01-10T12:04:17.173Z,72.1
2017-01-10T12:05:17.158Z,71.21
2017-01-10T12:06:17.144Z,71.5
2017-01-10T12:07:17.134Z,71.59
2017-01-10T12:08:17.120Z,72
2017-01-10T12:09:17.109Z,72.63
2017-01-10T12:10:17.093Z,72.92
2017-01-10T12:11:17.077Z,71.88
2017-01-10T12:12:17.071Z,72.16
2017-01-10T12:13:17.054Z,71.59
2017-01-10T12:14:17.038Z,71.5
2017-01-10T12:15:17.024Z,71.15
2017-01-10T12:16:17.014Z,71.62
2017-01-10T12:17:17.001Z,71.15
2017-01-10T12:18:16.987Z,71.53
2017-01-10T12:19:16.973Z,71.53
2017-01-10T12:20:16.960Z,71.06
2017-01-10T12:21:16.946Z,71.25
2017-01-10T12:22:16.937Z,70.87
2017-01-10T12:23:16.925Z,71.53
2017-01-10T12:24:16.910Z,71.06
2017-01-10T12:25:16.896Z,70.68
2017-01-10T12:26:16.881Z,70.87
2017-01-10T12:27:16.868Z,71.34
2017-01-10T12:28:16.859Z,70.78
2017-01-10T12:29:17.233Z,70.3
2017-01-10T12:30:16.844Z,69.82
2017-01-10T12:31:16.823Z,69.64
2017-01-10T12:32:16.804Z,69.07
2017-01-10T12:33:16.792Z,68.69
2017-01-10T12:34:16.779Z,68.69
2017-01-10T12:35:16.766Z,68.59
2017-01-10T12:36:16.752Z,67.55
2017-01-10T12:37:16.738Z,67.36
2017-01-10T12:38:16.725Z,67.02
2017-01-10T12:39:16.714Z,67.65
2017-01-10T12:40:17.095Z,66.26
2017-01-10T12:41:16.686Z,66.74
2017-01-10T12:42:16.673Z,66.74
2017-01-10T12:43:16.660Z,65.97
2017-01-10T12:44:16.649Z,66.35
2017-01-10T12:45:16.635Z,67.08
2017-01-10T12:46:16.623Z,66.54
2017-01-10T12:47:16.610Z,67.27
2017-01-10T12:48:16.597Z,67.46
2017-01-10T12:49:16.584Z,67.27
2017-01-10T12:50:16.574Z,67.55
2017-01-10T12:51:16.559Z,67.18
2017-01-10T12:52:16.546Z,66.7
2017-01-10T12:53:16.533Z,66.7
2017-01-10T12:54:16.520Z,66.51